Dallas, Texas
Traffic Map
Current Weather Conditions
Dallas, Texas
Broken Clouds
Broken Clouds
81°
Feels Like: 82°
Wind Chill: 81° Ceiling: 30000
Heat Index: 82° Visibility: 10mi
Dew Point: 63° Wind: 5mph
Humidity: 54% Direction: 90° (E)
Pressure: 29.92in Gusts: 0mph
Raw Report DataKDAL 031253Z 09004KT 10SM FEW200 BKN300 27/17 A2992 RMK AO2 SLP122 T02720172
Traffic Incident Summary
Active as of:
Severity:
Category:
InformationThere was an issue retrieving the traffic information for this location. Please try a different location or try again shortly.
Advertisements
Track Severe Weather on mobile